sensor_id;sensor_type;location;lat;lon;timestamp;pressure;altitude;pressure_sealevel;temperature;humidity
69306;BME280;56427;51.580;4.656;2022-12-07T00:03:34;101878.72;;;3.72;100.00
69306;BME280;56427;51.580;4.656;2022-12-07T00:06:00;101879.63;;;3.71;100.00
69306;BME280;56427;51.580;4.656;2022-12-07T00:08:26;101873.19;;;3.83;100.00
69306;BME280;56427;51.580;4.656;2022-12-07T00:10:52;101878.38;;;3.81;100.00
69306;BME280;56427;51.580;4.656;2022-12-07T00:13:17;101879.94;;;3.85;100.00
69306;BME280;56427;51.580;4.656;2022-12-07T00:15:43;101867.75;;;3.91;100.00
69306;BME280;56427;51.580;4.656;2022-12-07T00:18:08;101870.31;;;3.91;100.00
69306;BME280;56427;51.580;4.656;2022-12-07T00:20:33;101871.09;;;3.93;100.00
69306;BME280;56427;51.580;4.656;2022-12-07T00:22:59;101884.59;;;3.98;100.00
69306;BME280;56427;51.580;4.656;2022-12-07T00:25:24;101875.41;;;3.92;100.00
69306;BME280;56427;51.580;4.656;2022-12-07T00:27:52;101876.22;;;3.93;100.00
69306;BME280;56427;51.580;4.656;2022-12-07T00:30:17;101876.34;;;3.90;100.00
69306;BME280;56427;51.580;4.656;2022-12-07T00:32:43;101871.09;;;3.71;100.00
69306;BME280;56427;51.580;4.656;2022-12-07T00:35:08;101862.66;;;3.67;100.00
69306;BME280;56427;51.580;4.656;2022-12-07T00:37:33;101860.81;;;3.71;100.00
69306;BME280;56427;51.580;4.656;2022-12-07T00:39:58;101869.28;;;3.73;100.00
69306;BME280;56427;51.580;4.656;2022-12-07T00:42:24;101871.56;;;3.80;100.00
69306;BME280;56427;51.580;4.656;2022-12-07T00:44:49;101873.19;;;3.83;100.00
69306;BME280;56427;51.580;4.656;2022-12-07T00:47:14;101856.94;;;3.82;100.00
69306;BME280;56427;51.580;4.656;2022-12-07T00:49:39;101853.38;;;3.86;100.00
69306;BME280;56427;51.580;4.656;2022-12-07T00:52:05;101850.97;;;3.82;100.00
69306;BME280;56427;51.580;4.656;2022-12-07T00:54:30;101849.41;;;3.78;100.00
69306;BME280;56427;51.580;4.656;2022-12-07T00:56:55;101847.81;;;3.75;100.00
69306;BME280;56427;51.580;4.656;2022-12-07T00:59:21;101850.38;;;3.75;100.00
69306;BME280;56427;51.580;4.656;2022-12-07T01:01:46;101843.50;;;3.76;100.00
69306;BME280;56427;51.580;4.656;2022-12-07T01:04:11;101851.53;;;3.66;100.00
69306;BME280;56427;51.580;4.656;2022-12-07T01:06:36;101858.59;;;3.61;100.00
69306;BME280;56427;51.580;4.656;2022-12-07T01:09:02;101848.53;;;3.55;100.00
69306;BME280;56427;51.580;4.656;2022-12-07T01:11:29;101850.56;;;3.47;100.00
69306;BME280;56427;51.580;4.656;2022-12-07T01:13:56;101849.28;;;3.35;100.00
69306;BME280;56427;51.580;4.656;2022-12-07T01:16:24;101853.03;;;3.26;100.00
69306;BME280;56427;51.580;4.656;2022-12-07T01:18:52;101847.94;;;3.25;100.00
69306;BME280;56427;51.580;4.656;2022-12-07T01:21:38;101851.63;;;3.41;100.00
69306;BME280;56427;51.580;4.656;2022-12-07T01:24:05;101848.78;;;3.25;100.00
69306;BME280;56427;51.580;4.656;2022-12-07T01:26:30;101848.00;;;3.23;100.00
69306;BME280;56427;51.580;4.656;2022-12-07T01:28:56;101848.16;;;3.19;100.00
69306;BME280;56427;51.580;4.656;2022-12-07T01:31:25;101838.56;;;3.00;100.00
69306;BME280;56427;51.580;4.656;2022-12-07T01:33:54;101843.47;;;3.06;100.00
69306;BME280;56427;51.580;4.656;2022-12-07T01:36:35;101843.53;;;3.05;100.00
69306;BME280;56427;51.580;4.656;2022-12-07T01:39:05;101842.00;;;2.99;100.00
69306;BME280;56427;51.580;4.656;2022-12-07T01:41:35;101840.75;;;2.86;100.00
69306;BME280;56427;51.580;4.656;2022-12-07T01:44:23;101846.03;;;2.81;100.00
69306;BME280;56427;51.580;4.656;2022-12-07T01:49:28;101847.25;;;2.71;100.00
69306;BME280;56427;51.580;4.656;2022-12-07T01:52:25;101854.03;;;2.73;100.00
69306;BME280;56427;51.580;4.656;2022-12-07T01:54:51;101851.69;;;2.66;100.00
69306;BME280;56427;51.580;4.656;2022-12-07T01:57:18;101852.84;;;2.57;100.00
69306;BME280;56427;51.580;4.656;2022-12-07T01:59:48;101851.81;;;2.63;100.00
69306;BME280;56427;51.580;4.656;2022-12-07T02:02:21;101846.28;;;2.48;100.00
69306;BME280;56427;51.580;4.656;2022-12-07T02:04:48;101856.53;;;2.48;100.00
69306;BME280;56427;51.580;4.656;2022-12-07T02:07:16;101854.69;;;2.53;100.00
69306;BME280;56427;51.580;4.656;2022-12-07T02:09:41;101851.53;;;2.45;100.00
69306;BME280;56427;51.580;4.656;2022-12-07T02:12:06;101840.94;;;2.29;100.00
69306;BME280;56427;51.580;4.656;2022-12-07T02:14:32;101851.00;;;2.35;100.00
69306;BME280;56427;51.580;4.656;2022-12-07T02:17:26;101851.63;;;2.42;100.00
69306;BME280;56427;51.580;4.656;2022-12-07T02:20:43;101847.16;;;2.49;100.00
69306;BME280;56427;51.580;4.656;2022-12-07T02:29:12;101844.28;;;2.31;100.00
69306;BME280;56427;51.580;4.656;2022-12-07T02:31:44;101838.34;;;2.31;100.00
69306;BME280;56427;51.580;4.656;2022-12-07T02:34:21;101843.75;;;2.21;100.00
69306;BME280;56427;51.580;4.656;2022-12-07T02:36:55;101833.09;;;2.07;100.00
69306;BME280;56427;51.580;4.656;2022-12-07T02:39:33;101838.13;;;2.10;100.00
69306;BME280;56427;51.580;4.656;2022-12-07T02:42:13;101832.94;;;2.12;100.00
69306;BME280;56427;51.580;4.656;2022-12-07T02:44:40;101837.16;;;2.14;100.00
69306;BME280;56427;51.580;4.656;2022-12-07T02:47:09;101829.28;;;2.20;100.00
69306;BME280;56427;51.580;4.656;2022-12-07T02:49:37;101825.03;;;2.19;100.00
69306;BME280;56427;51.580;4.656;2022-12-07T02:52:03;101828.31;;;2.23;100.00
69306;BME280;56427;51.580;4.656;2022-12-07T02:54:29;101823.69;;;2.34;100.00
69306;BME280;56427;51.580;4.656;2022-12-07T02:57:04;101837.63;;;2.52;100.00
69306;BME280;56427;51.580;4.656;2022-12-07T03:02:34;101847.84;;;2.79;100.00
69306;BME280;56427;51.580;4.656;2022-12-07T03:07:59;101851.53;;;2.95;100.00
69306;BME280;56427;51.580;4.656;2022-12-07T03:11:04;101848.88;;;2.99;100.00
69306;BME280;56427;51.580;4.656;2022-12-07T03:16:27;101827.75;;;2.92;100.00
69306;BME280;56427;51.580;4.656;2022-12-07T03:19:03;101836.81;;;2.77;100.00
69306;BME280;56427;51.580;4.656;2022-12-07T03:21:38;101834.72;;;2.63;100.00
69306;BME280;56427;51.580;4.656;2022-12-07T03:24:08;101827.97;;;2.61;100.00
69306;BME280;56427;51.580;4.656;2022-12-07T03:26:42;101827.72;;;2.42;100.00
69306;BME280;56427;51.580;4.656;2022-12-07T03:29:28;101821.19;;;2.33;100.00
69306;BME280;56427;51.580;4.656;2022-12-07T03:32:10;101822.38;;;2.23;100.00
69306;BME280;56427;51.580;4.656;2022-12-07T03:37:26;101818.28;;;2.17;100.00
69306;BME280;56427;51.580;4.656;2022-12-07T03:40:04;101829.66;;;2.08;100.00
69306;BME280;56427;51.580;4.656;2022-12-07T03:42:32;101822.81;;;2.09;100.00
69306;BME280;56427;51.580;4.656;2022-12-07T03:44:58;101820.28;;;2.07;100.00
69306;BME280;56427;51.580;4.656;2022-12-07T03:47:35;101825.91;;;2.18;100.00
69306;BME280;56427;51.580;4.656;2022-12-07T03:50:17;101827.25;;;2.30;100.00
69306;BME280;56427;51.580;4.656;2022-12-07T03:53:03;101819.31;;;2.38;100.00
69306;BME280;56427;51.580;4.656;2022-12-07T03:55:32;101823.56;;;2.39;100.00
69306;BME280;56427;51.580;4.656;2022-12-07T03:58:03;101820.22;;;2.37;100.00
69306;BME280;56427;51.580;4.656;2022-12-07T04:00:30;101827.00;;;2.38;100.00
69306;BME280;56427;51.580;4.656;2022-12-07T04:02:55;101830.81;;;2.51;100.00
69306;BME280;56427;51.580;4.656;2022-12-07T04:05:22;101824.28;;;2.68;100.00
69306;BME280;56427;51.580;4.656;2022-12-07T04:07:48;101832.59;;;2.74;100.00
69306;BME280;56427;51.580;4.656;2022-12-07T04:10:13;101823.06;;;2.80;100.00
69306;BME280;56427;51.580;4.656;2022-12-07T04:12:39;101828.28;;;2.76;100.00
69306;BME280;56427;51.580;4.656;2022-12-07T04:15:05;101828.59;;;2.67;100.00
69306;BME280;56427;51.580;4.656;2022-12-07T04:17:30;101827.22;;;2.57;100.00
69306;BME280;56427;51.580;4.656;2022-12-07T04:19:56;101831.72;;;2.50;100.00
69306;BME280;56427;51.580;4.656;2022-12-07T04:22:21;101835.16;;;2.49;100.00
69306;BME280;56427;51.580;4.656;2022-12-07T04:24:46;101829.41;;;2.43;100.00
69306;BME280;56427;51.580;4.656;2022-12-07T04:27:12;101825.66;;;2.26;100.00
69306;BME280;56427;51.580;4.656;2022-12-07T04:29:37;101824.03;;;2.24;100.00
69306;BME280;56427;51.580;4.656;2022-12-07T04:32:02;101823.44;;;2.15;100.00
69306;BME280;56427;51.580;4.656;2022-12-07T04:34:28;101818.53;;;2.09;100.00
69306;BME280;56427;51.580;4.656;2022-12-07T04:36:53;101816.81;;;2.10;100.00
69306;BME280;56427;51.580;4.656;2022-12-07T04:39:29;101820.53;;;2.26;100.00
69306;BME280;56427;51.580;4.656;2022-12-07T04:41:56;101817.59;;;2.38;100.00
69306;BME280;56427;51.580;4.656;2022-12-07T04:44:22;101820.22;;;2.37;100.00
69306;BME280;56427;51.580;4.656;2022-12-07T04:46:48;101816.16;;;2.30;100.00
69306;BME280;56427;51.580;4.656;2022-12-07T04:49:14;101821.19;;;2.33;100.00
69306;BME280;56427;51.580;4.656;2022-12-07T04:51:40;101809.38;;;2.29;100.00
69306;BME280;56427;51.580;4.656;2022-12-07T04:54:06;101811.94;;;2.29;100.00
69306;BME280;56427;51.580;4.656;2022-12-07T04:56:32;101806.00;;;2.27;100.00
69306;BME280;56427;51.580;4.656;2022-12-07T04:58:57;101801.97;;;2.19;100.00
69306;BME280;56427;51.580;4.656;2022-12-07T05:01:24;101796.03;;;2.19;100.00
69306;BME280;56427;51.580;4.656;2022-12-07T05:03:50;101801.19;;;2.17;100.00
69306;BME280;56427;51.580;4.656;2022-12-07T05:06:16;101790.31;;;2.11;100.00
69306;BME280;56427;51.580;4.656;2022-12-07T05:08:41;101793.75;;;2.10;100.00
69306;BME280;56427;51.580;4.656;2022-12-07T05:11:08;101794.94;;;1.99;100.00
69306;BME280;56427;51.580;4.656;2022-12-07T05:13:34;101787.59;;;1.89;100.00
69306;BME280;56427;51.580;4.656;2022-12-07T05:16:00;101782.66;;;1.82;100.00
69306;BME280;56427;51.580;4.656;2022-12-07T05:18:25;101784.56;;;1.76;100.00
69306;BME280;56427;51.580;4.656;2022-12-07T05:20:51;101788.16;;;1.70;100.00
69306;BME280;56427;51.580;4.656;2022-12-07T05:23:17;101785.97;;;1.58;100.00
69306;BME280;56427;51.580;4.656;2022-12-07T05:25:42;101787.56;;;1.62;100.00
69306;BME280;56427;51.580;4.656;2022-12-07T05:28:07;101787.75;;;1.56;100.00
69306;BME280;56427;51.580;4.656;2022-12-07T05:30:33;101785.22;;;1.54;100.00
69306;BME280;56427;51.580;4.656;2022-12-07T05:32:58;101790.47;;;1.50;100.00
69306;BME280;56427;51.580;4.656;2022-12-07T05:35:24;101794.63;;;1.54;100.00
69306;BME280;56427;51.580;4.656;2022-12-07T05:37:49;101790.25;;;1.57;100.00
69306;BME280;56427;51.580;4.656;2022-12-07T05:40:15;101792.06;;;1.54;100.00
69306;BME280;56427;51.580;4.656;2022-12-07T05:42:40;101798.06;;;1.53;100.00
69306;BME280;56427;51.580;4.656;2022-12-07T05:45:07;101791.38;;;1.49;100.00
69306;BME280;56427;51.580;4.656;2022-12-07T05:47:32;101789.81;;;1.43;100.00
69306;BME280;56427;51.580;4.656;2022-12-07T05:49:58;101786.53;;;1.39;100.00
69306;BME280;56427;51.580;4.656;2022-12-07T05:52:23;101790.06;;;1.35;100.00
69306;BME280;56427;51.580;4.656;2022-12-07T05:54:48;101785.13;;;1.29;100.00
69306;BME280;56427;51.580;4.656;2022-12-07T05:57:14;101780.91;;;1.26;100.00
69306;BME280;56427;51.580;4.656;2022-12-07T05:59:39;101780.19;;;1.23;100.00
69306;BME280;56427;51.580;4.656;2022-12-07T06:02:10;101787.28;;;1.13;100.00
69306;BME280;56427;51.580;4.656;2022-12-07T06:04:41;101778.84;;;1.09;100.00
69306;BME280;56427;51.580;4.656;2022-12-07T06:07:07;101785.69;;;1.09;100.00
69306;BME280;56427;51.580;4.656;2022-12-07T06:09:33;101786.22;;;1.20;100.00
69306;BME280;56427;51.580;4.656;2022-12-07T06:11:59;101790.53;;;1.18;100.00
69306;BME280;56427;51.580;4.656;2022-12-07T06:14:44;101789.00;;;1.13;100.00
69306;BME280;56427;51.580;4.656;2022-12-07T06:17:11;101788.25;;;1.09;100.00
69306;BME280;56427;51.580;4.656;2022-12-07T06:19:37;101788.28;;;1.07;100.00
69306;BME280;56427;51.580;4.656;2022-12-07T06:22:03;101795.53;;;0.91;100.00
69306;BME280;56427;51.580;4.656;2022-12-07T06:24:30;101782.72;;;0.93;100.00
69306;BME280;56427;51.580;4.656;2022-12-07T06:26:56;101791.84;;;1.02;100.00
69306;BME280;56427;51.580;4.656;2022-12-07T06:29:21;101787.56;;;1.04;100.00
69306;BME280;56427;51.580;4.656;2022-12-07T06:31:48;101787.59;;;1.02;100.00
69306;BME280;56427;51.580;4.656;2022-12-07T06:34:18;101791.59;;;1.11;100.00
69306;BME280;56427;51.580;4.656;2022-12-07T06:36:44;101798.44;;;1.40;100.00
69306;BME280;56427;51.580;4.656;2022-12-07T06:39:10;101806.56;;;1.55;100.00
69306;BME280;56427;51.580;4.656;2022-12-07T06:41:36;101803.66;;;1.65;100.00
69306;BME280;56427;51.580;4.656;2022-12-07T06:44:03;101802.53;;;1.74;100.00
69306;BME280;56427;51.580;4.656;2022-12-07T06:46:29;101799.94;;;1.76;100.00
69306;BME280;56427;51.580;4.656;2022-12-07T06:48:54;101793.25;;;1.72;100.00
69306;BME280;56427;51.580;4.656;2022-12-07T06:51:20;101803.47;;;1.72;100.00
69306;BME280;56427;51.580;4.656;2022-12-07T06:53:45;101801.69;;;1.74;100.00
69306;BME280;56427;51.580;4.656;2022-12-07T06:56:10;101798.19;;;1.78;100.00
69306;BME280;56427;51.580;4.656;2022-12-07T06:58:36;101792.28;;;1.74;100.00
69306;BME280;56427;51.580;4.656;2022-12-07T07:01:01;101792.19;;;1.77;100.00
69306;BME280;56427;51.580;4.656;2022-12-07T07:03:26;101783.00;;;1.72;100.00
69306;BME280;56427;51.580;4.656;2022-12-07T07:05:52;101783.88;;;1.71;100.00
69306;BME280;56427;51.580;4.656;2022-12-07T07:08:17;101793.34;;;1.69;100.00
69306;BME280;56427;51.580;4.656;2022-12-07T07:10:42;101797.75;;;1.63;100.00
69306;BME280;56427;51.580;4.656;2022-12-07T07:13:08;101797.06;;;1.58;100.00
69306;BME280;56427;51.580;4.656;2022-12-07T07:15:34;101788.59;;;1.56;100.00
69306;BME280;56427;51.580;4.656;2022-12-07T07:17:59;101795.53;;;1.51;100.00
69306;BME280;56427;51.580;4.656;2022-12-07T07:20:25;101799.84;;;1.51;100.00
69306;BME280;56427;51.580;4.656;2022-12-07T07:22:51;101799.78;;;1.52;100.00
69306;BME280;56427;51.580;4.656;2022-12-07T07:25:18;101799.22;;;1.42;100.00
69306;BME280;56427;51.580;4.656;2022-12-07T07:27:44;101799.63;;;1.28;100.00
69306;BME280;56427;51.580;4.656;2022-12-07T07:30:09;101793.88;;;1.22;100.00
69306;BME280;56427;51.580;4.656;2022-12-07T07:32:34;101793.00;;;1.21;100.00
69306;BME280;56427;51.580;4.656;2022-12-07T07:35:00;101798.94;;;1.23;100.00
69306;BME280;56427;51.580;4.656;2022-12-07T07:37:25;101791.25;;;1.23;100.00
69306;BME280;56427;51.580;4.656;2022-12-07T07:39:51;101791.06;;;1.29;100.00
69306;BME280;56427;51.580;4.656;2022-12-07T07:42:16;101790.16;;;1.32;100.00
69306;BME280;56427;51.580;4.656;2022-12-07T07:44:42;101795.97;;;1.37;100.00
69306;BME280;56427;51.580;4.656;2022-12-07T07:47:07;101794.28;;;1.36;100.00
69306;BME280;56427;51.580;4.656;2022-12-07T07:49:32;101796.06;;;1.34;100.00
69306;BME280;56427;51.580;4.656;2022-12-07T07:51:58;101801.13;;;1.36;100.00
69306;BME280;56427;51.580;4.656;2022-12-07T07:54:23;101800.09;;;1.41;100.00
69306;BME280;56427;51.580;4.656;2022-12-07T07:56:48;101797.53;;;1.41;100.00
69306;BME280;56427;51.580;4.656;2022-12-07T07:59:14;101802.72;;;1.40;100.00
69306;BME280;56427;51.580;4.656;2022-12-07T08:01:39;101805.91;;;1.48;100.00
69306;BME280;56427;51.580;4.656;2022-12-07T08:04:04;101804.13;;;1.50;100.00
69306;BME280;56427;51.580;4.656;2022-12-07T08:06:30;101804.91;;;1.52;100.00
69306;BME280;56427;51.580;4.656;2022-12-07T08:08:55;101806.63;;;1.52;100.00
69306;BME280;56427;51.580;4.656;2022-12-07T08:11:22;101805.66;;;1.56;100.00
69306;BME280;56427;51.580;4.656;2022-12-07T08:13:48;101811.56;;;1.58;100.00
69306;BME280;56427;51.580;4.656;2022-12-07T08:16:13;101810.03;;;1.52;100.00
69306;BME280;56427;51.580;4.656;2022-12-07T08:18:40;101804.41;;;1.69;100.00
69306;BME280;56427;51.580;4.656;2022-12-07T08:21:07;101812.50;;;1.83;100.00
69306;BME280;56427;51.580;4.656;2022-12-07T08:23:34;101811.28;;;1.95;100.00
69306;BME280;56427;51.580;4.656;2022-12-07T08:26:01;101809.16;;;2.08;100.00
69306;BME280;56427;51.580;4.656;2022-12-07T08:28:27;101808.06;;;2.15;100.00
69306;BME280;56427;51.580;4.656;2022-12-07T08:31:07;101813.09;;;2.18;100.00
69306;BME280;56427;51.580;4.656;2022-12-07T08:33:34;101822.00;;;2.33;100.00
69306;BME280;56427;51.580;4.656;2022-12-07T08:36:08;101824.56;;;2.33;100.00
69306;BME280;56427;51.580;4.656;2022-12-07T08:38:35;101823.47;;;2.42;100.00
69306;BME280;56427;51.580;4.656;2022-12-07T08:41:00;101821.81;;;2.65;100.00
69306;BME280;56427;51.580;4.656;2022-12-07T08:43:25;101828.63;;;2.66;100.00
69306;BME280;56427;51.580;4.656;2022-12-07T08:46:06;101822.00;;;2.60;100.00
69306;BME280;56427;51.580;4.656;2022-12-07T08:48:33;101819.44;;;2.60;100.00
69306;BME280;56427;51.580;4.656;2022-12-07T08:51:01;101815.00;;;2.65;100.00
69306;BME280;56427;51.580;4.656;2022-12-07T08:53:28;101813.72;;;2.77;100.00
69306;BME280;56427;51.580;4.656;2022-12-07T08:55:55;101806.81;;;2.79;100.00
69306;BME280;56427;51.580;4.656;2022-12-07T08:58:21;101813.78;;;2.99;100.00
69306;BME280;56427;51.580;4.656;2022-12-07T09:00:47;101816.25;;;3.02;100.00
69306;BME280;56427;51.580;4.656;2022-12-07T09:03:12;101818.75;;;3.29;100.00
69306;BME280;56427;51.580;4.656;2022-12-07T09:05:37;101818.13;;;3.68;100.00
69306;BME280;56427;51.580;4.656;2022-12-07T09:08:03;101822.69;;;3.83;100.00
69306;BME280;56427;51.580;4.656;2022-12-07T09:10:29;101832.09;;;4.05;100.00
69306;BME280;56427;51.580;4.656;2022-12-07T09:12:54;101822.81;;;4.01;100.00
69306;BME280;56427;51.580;4.656;2022-12-07T09:15:20;101807.84;;;3.90;100.00
69306;BME280;56427;51.580;4.656;2022-12-07T09:17:45;101818.19;;;3.89;100.00
69306;BME280;56427;51.580;4.656;2022-12-07T09:20:11;101810.50;;;3.89;100.00
69306;BME280;56427;51.580;4.656;2022-12-07T09:22:37;101814.72;;;3.90;100.00
69306;BME280;56427;51.580;4.656;2022-12-07T09:25:03;101818.13;;;3.90;100.00
69306;BME280;56427;51.580;4.656;2022-12-07T09:27:28;101814.38;;;3.77;100.00
69306;BME280;56427;51.580;4.656;2022-12-07T09:29:54;101812.88;;;3.71;100.00
69306;BME280;56427;51.580;4.656;2022-12-07T09:32:19;101810.47;;;3.66;100.00
69306;BME280;56427;51.580;4.656;2022-12-07T09:34:45;101815.72;;;3.63;100.00
69306;BME280;56427;51.580;4.656;2022-12-07T09:37:10;101803.09;;;3.59;100.00
69306;BME280;56427;51.580;4.656;2022-12-07T09:39:39;101811.59;;;3.59;100.00
69306;BME280;56427;51.580;4.656;2022-12-07T09:42:05;101812.16;;;3.45;100.00
69306;BME280;56427;51.580;4.656;2022-12-07T09:44:32;101813.78;;;3.46;100.00
69306;BME280;56427;51.580;4.656;2022-12-07T09:46:58;101811.34;;;3.43;100.00
69306;BME280;56427;51.580;4.656;2022-12-07T09:49:25;101810.88;;;3.78;100.00
69306;BME280;56427;51.580;4.656;2022-12-07T09:52:25;101818.31;;;4.28;100.00
69306;BME280;56427;51.580;4.656;2022-12-07T09:54:51;101813.59;;;4.39;100.00
69306;BME280;56427;51.580;4.656;2022-12-07T09:57:19;101813.28;;;4.87;100.00
69306;BME280;56427;51.580;4.656;2022-12-07T09:59:46;101807.47;;;5.21;100.00
69306;BME280;56427;51.580;4.656;2022-12-07T10:04:49;101800.25;;;5.29;100.00
69306;BME280;56427;51.580;4.656;2022-12-07T10:07:14;101808.63;;;5.34;100.00
69306;BME280;56427;51.580;4.656;2022-12-07T10:09:39;101799.75;;;5.21;100.00
69306;BME280;56427;51.580;4.656;2022-12-07T10:12:10;101799.00;;;5.19;100.00
69306;BME280;56427;51.580;4.656;2022-12-07T10:14:39;101789.97;;;5.10;100.00
69306;BME280;56427;51.580;4.656;2022-12-07T10:17:41;101788.47;;;5.05;100.00
69306;BME280;56427;51.580;4.656;2022-12-07T10:20:24;101793.66;;;5.24;100.00
69306;BME280;56427;51.580;4.656;2022-12-07T10:25:34;101800.75;;;5.19;100.00
69306;BME280;56427;51.580;4.656;2022-12-07T10:30:59;101793.22;;;5.14;100.00
69306;BME280;56427;51.580;4.656;2022-12-07T10:33:37;101786.56;;;5.10;100.00
69306;BME280;56427;51.580;4.656;2022-12-07T10:39:14;101780.13;;;5.00;100.00
69306;BME280;56427;51.580;4.656;2022-12-07T10:42:00;101769.41;;;4.90;100.00
69306;BME280;56427;51.580;4.656;2022-12-07T10:44:31;101775.13;;;4.96;100.00
69306;BME280;56427;51.580;4.656;2022-12-07T10:47:01;101775.00;;;5.00;100.00
69306;BME280;56427;51.580;4.656;2022-12-07T11:03:48;101760.56;;;4.76;100.00
69306;BME280;56427;51.580;4.656;2022-12-07T11:06:27;101748.72;;;4.74;100.00
69306;BME280;56427;51.580;4.656;2022-12-07T11:09:02;101746.91;;;4.76;100.00
69306;BME280;56427;51.580;4.656;2022-12-07T11:14:05;101736.47;;;4.79;100.00
69306;BME280;56427;51.580;4.656;2022-12-07T11:16:55;101715.03;;;4.59;100.00
69306;BME280;56427;51.580;4.656;2022-12-07T11:25:23;101727.59;;;5.05;100.00
69306;BME280;56427;51.580;4.656;2022-12-07T11:31:08;101721.78;;;5.38;100.00
69306;BME280;56427;51.580;4.656;2022-12-07T11:33:47;101707.88;;;5.60;100.00
69306;BME280;56427;51.580;4.656;2022-12-07T11:36:37;101709.63;;;5.59;100.00
69306;BME280;56427;51.580;4.656;2022-12-07T11:39:28;101692.50;;;5.58;100.00
69306;BME280;56427;51.580;4.656;2022-12-07T11:42:06;101704.16;;;5.65;100.00
69306;BME280;56427;51.580;4.656;2022-12-07T11:44:56;101697.13;;;5.51;100.00
69306;BME280;56427;51.580;4.656;2022-12-07T11:47:36;101704.16;;;5.65;100.00
69306;BME280;56427;51.580;4.656;2022-12-07T11:52:48;101699.94;;;5.82;100.00
69306;BME280;56427;51.580;4.656;2022-12-07T11:55:30;101697.47;;;5.98;100.00
69306;BME280;56427;51.580;4.656;2022-12-07T11:58:53;101702.88;;;6.44;100.00
69306;BME280;56427;51.580;4.656;2022-12-07T12:01:05;101701.06;;;6.62;100.00
69306;BME280;56427;51.580;4.656;2022-12-07T12:03:41;101691.50;;;6.48;100.00
69306;BME280;56427;51.580;4.656;2022-12-07T12:06:08;101700.50;;;6.06;100.00
69306;BME280;56427;51.580;4.656;2022-12-07T12:08:39;101690.22;;;5.87;100.00
69306;BME280;56427;51.580;4.656;2022-12-07T12:19:43;101674.78;;;5.15;100.00
69306;BME280;56427;51.580;4.656;2022-12-07T12:22:28;101676.03;;;5.26;100.00
69306;BME280;56427;51.580;4.656;2022-12-07T12:24:57;101684.41;;;5.29;100.00
69306;BME280;56427;51.580;4.656;2022-12-07T12:27:27;101679.75;;;5.38;100.00
69306;BME280;56427;51.580;4.656;2022-12-07T12:29:58;101678.63;;;5.43;100.00
69306;BME280;56427;51.580;4.656;2022-12-07T12:35:00;101676.88;;;5.44;100.00
69306;BME280;56427;51.580;4.656;2022-12-07T12:42:48;101648.28;;;5.67;100.00
69306;BME280;56427;51.580;4.656;2022-12-07T12:45:25;101656.69;;;5.71;100.00
69306;BME280;56427;51.580;4.656;2022-12-07T12:47:53;101652.22;;;5.75;100.00
69306;BME280;56427;51.580;4.656;2022-12-07T12:50:41;101649.78;;;5.71;100.00
69306;BME280;56427;51.580;4.656;2022-12-07T12:58:34;101629.72;;;5.61;100.00
69306;BME280;56427;51.580;4.656;2022-12-07T13:01:38;101641.03;;;5.76;100.00
69306;BME280;56427;51.580;4.656;2022-12-07T13:04:21;101646.91;;;5.60;100.00
69306;BME280;56427;51.580;4.656;2022-12-07T13:06:49;101639.94;;;5.80;100.00
69306;BME280;56427;51.580;4.656;2022-12-07T13:09:23;101639.63;;;6.03;100.00
69306;BME280;56427;51.580;4.656;2022-12-07T13:11:57;101631.75;;;5.71;100.00
69306;BME280;56427;51.580;4.656;2022-12-07T13:14:43;101640.09;;;5.77;100.00
69306;BME280;56427;51.580;4.656;2022-12-07T13:19:57;101642.97;;;5.70;100.00
69306;BME280;56427;51.580;4.656;2022-12-07T13:25:21;101623.88;;;5.57;100.00
69306;BME280;56427;51.580;4.656;2022-12-07T13:27:56;101626.47;;;5.57;100.00
69306;BME280;56427;51.580;4.656;2022-12-07T13:30:23;101621.72;;;5.49;100.00
69306;BME280;56427;51.580;4.656;2022-12-07T13:32:54;101617.09;;;5.56;100.00
69306;BME280;56427;51.580;4.656;2022-12-07T13:35:35;101611.75;;;5.77;100.00
69306;BME280;56427;51.580;4.656;2022-12-07T13:38:05;101606.81;;;5.72;100.00
69306;BME280;56427;51.580;4.656;2022-12-07T13:40:30;101602.53;;;5.55;100.00
69306;BME280;56427;51.580;4.656;2022-12-07T13:43:01;101598.69;;;5.46;100.00
69306;BME280;56427;51.580;4.656;2022-12-07T13:45:32;101600.25;;;5.66;100.00
69306;BME280;56427;51.580;4.656;2022-12-07T13:51:34;101598.59;;;5.30;100.00
69306;BME280;56427;51.580;4.656;2022-12-07T13:54:09;101599.50;;;5.47;100.00
69306;BME280;56427;51.580;4.656;2022-12-07T13:56:35;101597.91;;;5.44;100.00
69306;BME280;56427;51.580;4.656;2022-12-07T13:59:01;101597.91;;;5.27;100.00
69306;BME280;56427;51.580;4.656;2022-12-07T14:01:28;101589.88;;;5.15;100.00
69306;BME280;56427;51.580;4.656;2022-12-07T14:03:55;101595.22;;;5.11;100.00
69306;BME280;56427;51.580;4.656;2022-12-07T14:06:24;101594.69;;;5.04;100.00
69306;BME280;56427;51.580;4.656;2022-12-07T14:09:17;101589.97;;;4.95;100.00
69306;BME280;56427;51.580;4.656;2022-12-07T14:11:43;101582.25;;;4.95;100.00
69306;BME280;56427;51.580;4.656;2022-12-07T14:14:21;101584.47;;;5.03;100.00
69306;BME280;56427;51.580;4.656;2022-12-07T14:16:59;101584.47;;;5.03;100.00
69306;BME280;56427;51.580;4.656;2022-12-07T14:22:34;101562.84;;;5.07;100.00
69306;BME280;56427;51.580;4.656;2022-12-07T14:25:14;101571.19;;;5.12;100.00
69306;BME280;56427;51.580;4.656;2022-12-07T14:30:21;101571.31;;;5.09;100.00
69306;BME280;56427;51.580;4.656;2022-12-07T14:33:04;101567.19;;;5.24;100.00
69306;BME280;56427;51.580;4.656;2022-12-07T14:35:30;101571.34;;;5.26;100.00
69306;BME280;56427;51.580;4.656;2022-12-07T14:37:56;101562.69;;;5.27;100.00
69306;BME280;56427;51.580;4.656;2022-12-07T14:40:24;101552.56;;;5.07;100.00
69306;BME280;56427;51.580;4.656;2022-12-07T14:42:51;101566.53;;;5.01;100.00